Time;durP1;ratioP1;P1;durP2;ratioP2;P2;SDS_P1;SDS_P2;PMS_P1;PMS_P2;Temp;Humidity;BMP_temperature;BMP_pressure;BME280_temperature;BME280_humidity;BME280_pressure;Samples;Min_cycle;Max_cycle;Signal;HPM_P1;HPM_P2
2022/12/07 00:01:25;;;;;;;15.82;9.63;;;5.00;99.90;;;;;;5073150;28;20029;-76
2022/12/07 00:03:53;;;;;;;24.77;10.68;;;5.00;99.90;;;;;;5072892;28;20033;-75
2022/12/07 00:06:20;;;;;;;15.45;9.38;;;5.00;99.90;;;;;;5072706;28;20032;-75
2022/12/07 00:08:46;;;;;;;11.80;8.65;;;4.90;99.90;;;;;;5072702;28;20054;-75
2022/12/07 00:11:15;;;;;;;14.35;8.60;;;4.80;99.90;;;;;;5073062;28;20032;-75
2022/12/07 00:13:42;;;;;;;14.23;8.95;;;5.00;99.90;;;;;;5072848;28;20041;-75
2022/12/07 00:16:11;;;;;;;13.77;7.85;;;4.90;99.90;;;;;;5072963;28;20024;-75
2022/12/07 00:18:37;;;;;;;17.67;9.55;;;4.90;99.90;;;;;;5072711;28;20016;-75
2022/12/07 00:21:09;;;;;;;20.10;8.75;;;4.90;99.90;;;;;;5072659;28;20074;-75
2022/12/07 00:23:35;;;;;;;23.35;9.43;;;4.80;99.90;;;;;;5072694;28;20020;-75
2022/12/07 00:26:06;;;;;;;17.52;9.02;;;4.70;99.90;;;;;;5075541;28;20529;-75
2022/12/07 00:28:33;;;;;;;18.20;9.23;;;4.70;99.90;;;;;;5080215;28;20040;-75
2022/12/07 00:31:10;;;;;;;18.40;9.68;;;4.70;99.90;;;;;;5072623;28;20052;-75
2022/12/07 00:33:38;;;;;;;12.95;8.00;;;4.60;99.90;;;;;;5072289;28;20036;-75
2022/12/07 00:36:09;;;;;;;15.68;8.98;;;4.70;99.90;;;;;;5072499;28;20028;-75
2022/12/07 00:38:36;;;;;;;13.60;9.15;;;4.80;99.90;;;;;;5072506;28;20028;-75
2022/12/07 00:41:05;;;;;;;22.77;9.43;;;4.70;99.90;;;;;;5072810;28;20025;-75
2022/12/07 00:43:31;;;;;;;20.92;9.07;;;4.70;99.90;;;;;;5072495;28;20279;-75
2022/12/07 00:45:57;;;;;;;14.82;8.40;;;4.80;99.90;;;;;;5072498;28;20012;-75
2022/12/07 00:48:24;;;;;;;20.08;9.02;;;4.90;99.90;;;;;;5054100;28;20044;-73
2022/12/07 00:50:50;;;;;;;18.00;9.18;;;4.90;99.90;;;;;;5071309;28;20024;-75
2022/12/07 00:53:16;;;;;;;15.02;8.90;;;5.00;99.90;;;;;;5072285;28;20043;-75
2022/12/07 00:55:42;;;;;;;18.38;8.80;;;4.90;99.90;;;;;;5072568;28;20029;-75
2022/12/07 00:58:08;;;;;;;15.82;7.57;;;4.90;99.90;;;;;;5072574;28;20692;-75
2022/12/07 01:00:37;;;;;;;10.70;7.72;;;4.90;99.90;;;;;;5071235;28;20048;-75
2022/12/07 01:03:04;;;;;;;14.55;7.32;;;5.00;99.90;;;;;;5072208;28;20040;-75
2022/12/07 01:05:30;;;;;;;16.08;7.18;;;5.00;99.90;;;;;;5072266;28;20105;-75
2022/12/07 01:07:55;;;;;;;10.93;6.70;;;5.00;99.90;;;;;;5072456;28;20116;-75
2022/12/07 01:10:21;;;;;;;13.95;6.80;;;5.00;99.90;;;;;;5071087;28;20500;-75
2022/12/07 01:12:47;;;;;;;11.13;6.70;;;4.90;99.90;;;;;;5071374;28;20036;-75
2022/12/07 01:15:13;;;;;;;18.48;7.55;;;4.90;99.90;;;;;;5072293;28;20024;-75
2022/12/07 01:17:39;;;;;;;14.55;6.32;;;4.80;99.90;;;;;;5072118;28;20020;-75
2022/12/07 01:20:05;;;;;;;14.52;7.18;;;4.80;99.90;;;;;;5072377;28;20438;-75
2022/12/07 01:22:31;;;;;;;11.40;6.90;;;4.70;99.90;;;;;;5072529;28;20055;-75
2022/12/07 01:24:57;;;;;;;11.30;6.60;;;4.60;99.90;;;;;;5072454;28;20473;-75
2022/12/07 01:27:22;;;;;;;12.25;6.68;;;4.60;99.90;;;;;;5070774;28;20065;-75
2022/12/07 01:29:48;;;;;;;15.07;6.53;;;4.60;99.90;;;;;;5072139;28;20079;-75
2022/12/07 01:32:14;;;;;;;14.40;7.22;;;4.50;99.90;;;;;;5071681;28;20024;-74
2022/12/07 01:34:40;;;;;;;14.93;7.50;;;4.70;99.90;;;;;;5072046;28;20031;-75
2022/12/07 01:37:05;;;;;;;14.07;7.18;;;4.80;99.90;;;;;;5072327;28;20039;-75
2022/12/07 01:39:31;;;;;;;14.63;7.63;;;4.60;99.90;;;;;;5071741;28;20028;-75
2022/12/07 01:41:57;;;;;;;16.52;7.53;;;4.50;99.90;;;;;;5072114;28;20029;-75
2022/12/07 01:44:26;;;;;;;15.98;6.97;;;4.50;99.90;;;;;;5072262;28;20071;-73
2022/12/07 01:47:01;;;;;;;19.60;7.38;;;4.70;99.90;;;;;;5086032;28;20032;-72
2022/12/07 01:49:41;;;;;;;15.25;6.90;;;4.60;99.90;;;;;;5095374;28;20059;-73
2022/12/07 01:52:23;;;;;;;14.77;7.40;;;4.60;99.90;;;;;;5096038;28;20384;-72
2022/12/07 01:54:53;;;;;;;17.88;7.25;;;4.60;99.90;;;;;;5087443;28;20023;-73
2022/12/07 01:57:20;;;;;;;11.45;6.90;;;4.50;99.90;;;;;;5095739;28;20114;-73
2022/12/07 01:59:48;;;;;;;17.50;6.95;;;4.50;99.90;;;;;;5095742;28;20032;-74
2022/12/07 02:02:22;;;;;;;16.70;7.47;;;4.60;99.90;;;;;;5094879;28;20034;-74
2022/12/07 02:04:50;;;;;;;17.02;6.50;;;4.60;99.90;;;;;;5095794;28;20028;-74
2022/12/07 02:07:16;;;;;;;18.15;6.60;;;4.70;99.90;;;;;;5095367;28;20119;-75
2022/12/07 02:09:42;;;;;;;14.43;7.00;;;4.80;99.90;;;;;;5094352;28;20128;-75
2022/12/07 02:12:08;;;;;;;14.30;6.43;;;4.90;99.90;;;;;;5093854;28;20476;-75
2022/12/07 02:14:34;;;;;;;16.85;6.88;;;4.90;99.90;;;;;;5094128;28;20040;-75
2022/12/07 02:17:10;;;;;;;13.57;5.80;;;5.00;99.90;;;;;;5093675;28;20107;-75
2022/12/07 02:20:08;;;;;;;18.50;5.57;;;5.10;99.90;;;;;;5094046;28;20081;-75
2022/12/07 02:22:55;;;;;;;11.60;6.18;;;5.10;99.90;;;;;;5094852;28;20065;-75
2022/12/07 02:25:27;;;;;;;13.60;5.80;;;5.20;99.90;;;;;;5095296;28;20060;-75
2022/12/07 02:28:07;;;;;;;13.35;5.78;;;5.10;99.90;;;;;;5095023;28;20040;-75
2022/12/07 02:30:37;;;;;;;13.13;5.85;;;5.20;99.90;;;;;;5092665;28;20070;-75
2022/12/07 02:33:08;;;;;;;13.35;5.70;;;5.10;99.90;;;;;;5076491;28;20028;-74
2022/12/07 02:35:39;;;;;;;12.90;5.50;;;5.10;99.90;;;;;;5093727;28;20024;-75
2022/12/07 02:38:16;;;;;;;10.70;4.35;;;5.00;99.90;;;;;;5094792;28;20058;-75
2022/12/07 02:40:47;;;;;;;11.10;4.75;;;4.90;99.90;;;;;;5094980;28;20388;-75
2022/12/07 02:43:37;;;;;;;12.15;4.80;;;4.90;99.90;;;;;;5094710;28;20035;-75
2022/12/07 02:46:08;;;;;;;14.05;4.88;;;4.80;99.90;;;;;;5093365;28;20028;-75
2022/12/07 02:48:35;;;;;;;13.75;5.03;;;4.80;99.90;;;;;;5094560;28;20071;-74
2022/12/07 02:51:00;;;;;;;11.13;4.90;;;4.80;99.90;;;;;;5064638;28;20130;-75
2022/12/07 02:53:35;;;;;;;11.15;4.68;;;4.80;99.90;;;;;;5092271;28;20028;-75
2022/12/07 02:56:40;;;;;;;10.23;4.28;;;4.80;99.90;;;;;;5076672;28;20433;-75
2022/12/07 02:59:11;;;;;;;12.15;4.78;;;4.80;99.90;;;;;;5094013;28;20038;-74
2022/12/07 03:02:08;;;;;;;15.90;4.63;;;5.10;99.90;;;;;;5093229;28;20119;-74
2022/12/07 03:04:37;;;;;;;13.10;4.90;;;5.40;99.90;;;;;;5093353;28;20546;-75
2022/12/07 03:07:11;;;;;;;12.20;4.50;;;5.20;99.90;;;;;;5094270;28;20542;-75
2022/12/07 03:10:02;;;;;;;16.55;4.85;;;5.10;99.90;;;;;;5094481;28;20040;-75
2022/12/07 03:12:45;;;;;;;16.42;4.72;;;5.00;99.90;;;;;;5094247;28;20053;-75
2022/12/07 03:15:39;;;;;;;15.90;5.53;;;5.00;99.90;;;;;;5095386;28;20041;-75
2022/12/07 03:18:07;;;;;;;12.77;4.90;;;4.90;99.90;;;;;;5088825;28;20123;-75
2022/12/07 03:20:36;;;;;;;12.52;5.10;;;4.80;99.90;;;;;;5094586;28;20603;-74
2022/12/07 03:23:06;;;;;;;11.65;5.22;;;4.90;99.90;;;;;;5093201;28;20479;-74
2022/12/07 03:25:34;;;;;;;14.73;5.55;;;4.90;99.90;;;;;;5094017;28;20422;-74
2022/12/07 03:28:05;;;;;;;11.73;5.50;;;5.20;99.90;;;;;;5093790;28;20079;-73
2022/12/07 03:30:48;;;;;;;19.20;6.22;;;5.10;99.90;;;;;;5094128;28;20051;-74
2022/12/07 03:33:27;;;;;;;12.38;5.03;;;5.00;99.90;;;;;;5092608;28;20483;-73
2022/12/07 03:36:19;;;;;;;12.32;5.15;;;5.00;99.90;;;;;;5093591;28;20036;-74
2022/12/07 03:39:22;;;;;;;19.30;5.47;;;5.50;99.90;;;;;;5081878;28;20117;-75
2022/12/07 03:41:49;;;;;;;13.60;5.53;;;5.30;99.90;;;;;;5069101;28;20119;-73
2022/12/07 03:44:16;;;;;;;12.70;4.05;;;5.40;99.90;;;;;;5092099;28;20024;-74
2022/12/07 03:47:12;;;;;;;11.43;3.95;;;5.30;99.90;;;;;;5092597;28;20114;-75
2022/12/07 03:49:41;;;;;;;10.98;3.88;;;5.10;99.90;;;;;;5093258;28;20093;-75
2022/12/07 03:52:18;;;;;;;12.52;4.32;;;5.00;99.90;;;;;;5092362;28;20472;-75
2022/12/07 03:55:02;;;;;;;13.90;4.25;;;5.10;99.90;;;;;;5093459;28;20020;-75
2022/12/07 03:57:31;;;;;;;6.47;3.40;;;5.10;99.90;;;;;;5092951;28;20020;-75
2022/12/07 03:59:58;;;;;;;11.43;4.35;;;5.10;99.90;;;;;;5093339;28;20065;-75
2022/12/07 04:02:26;;;;;;;9.68;4.00;;;5.00;99.90;;;;;;5093488;28;20024;-75
2022/12/07 04:04:52;;;;;;;11.65;4.00;;;5.10;99.90;;;;;;5093172;28;20020;-75
2022/12/07 04:07:17;;;;;;;14.32;4.07;;;5.00;99.90;;;;;;5091754;28;20132;-75
2022/12/07 04:09:43;;;;;;;7.75;3.90;;;4.90;99.90;;;;;;5093081;28;20557;-74
2022/12/07 04:12:09;;;;;;;16.02;5.38;;;4.80;99.90;;;;;;5092076;28;20464;-74
2022/12/07 04:14:35;;;;;;;11.65;4.32;;;4.70;99.90;;;;;;5093155;28;20123;-75
2022/12/07 04:17:00;;;;;;;15.88;4.55;;;4.70;99.90;;;;;;5091949;28;20078;-75
2022/12/07 04:19:29;;;;;;;10.77;4.18;;;4.60;99.90;;;;;;5093349;28;20032;-74
2022/12/07 04:21:57;;;;;;;11.88;4.53;;;4.70;99.90;;;;;;5093198;28;20465;-72
2022/12/07 04:24:23;;;;;;;16.35;4.75;;;4.80;99.90;;;;;;5087227;28;20035;-72
2022/12/07 04:26:49;;;;;;;12.77;4.53;;;4.80;99.90;;;;;;5084575;28;20032;-73
2022/12/07 04:29:16;;;;;;;11.73;4.07;;;4.70;99.90;;;;;;5092695;28;20032;-73
2022/12/07 04:31:42;;;;;;;9.45;4.05;;;4.70;99.90;;;;;;5092656;28;20020;-72
2022/12/07 04:34:09;;;;;;;9.52;4.32;;;4.60;99.90;;;;;;5090763;28;20077;-73
2022/12/07 04:36:35;;;;;;;17.42;5.22;;;4.50;99.90;;;;;;5080486;28;20039;-73
2022/12/07 04:39:01;;;;;;;19.27;6.03;;;4.60;99.90;;;;;;5092721;28;20024;-73
2022/12/07 04:41:27;;;;;;;15.93;6.88;;;4.70;99.90;;;;;;5093005;28;20064;-73
2022/12/07 04:43:58;;;;;;;18.73;5.63;;;5.00;99.90;;;;;;5092704;28;20028;-73
2022/12/07 04:46:26;;;;;;;11.70;5.87;;;4.90;99.90;;;;;;5092694;28;20409;-73
2022/12/07 04:48:53;;;;;;;13.10;7.88;;;4.90;99.90;;;;;;5091285;28;20040;-73
2022/12/07 04:51:21;;;;;;;15.18;7.13;;;4.90;99.90;;;;;;5091551;28;20016;-73
2022/12/07 04:53:47;;;;;;;12.85;7.10;;;4.90;99.90;;;;;;5092753;28;20443;-73
2022/12/07 04:56:14;;;;;;;16.80;4.97;;;4.90;99.90;;;;;;5091177;28;20095;-73
2022/12/07 04:58:39;;;;;;;10.88;4.38;;;5.20;99.90;;;;;;5090945;28;20381;-72
2022/12/07 05:01:05;;;;;;;11.25;4.40;;;5.10;99.90;;;;;;5081400;28;20031;-72
2022/12/07 05:03:31;;;;;;;22.85;5.15;;;4.90;99.90;;;;;;5088589;28;20515;-73
2022/12/07 05:05:56;;;;;;;22.65;13.35;;;4.90;99.90;;;;;;5091110;28;20030;-73
2022/12/07 05:08:22;;;;;;;24.05;17.42;;;4.90;99.90;;;;;;5092563;28;20054;-73
2022/12/07 05:10:49;;;;;;;18.52;9.90;;;5.00;99.90;;;;;;5092004;28;20070;-73
2022/12/07 05:13:15;;;;;;;13.63;5.50;;;5.20;99.90;;;;;;5092625;28;20422;-73
2022/12/07 05:15:43;;;;;;;14.10;3.97;;;5.20;99.90;;;;;;5092337;28;20024;-73
2022/12/07 05:18:12;;;;;;;11.68;3.75;;;5.10;99.90;;;;;;5086841;28;20037;-72
2022/12/07 05:20:39;;;;;;;15.38;4.05;;;5.10;99.90;;;;;;5087675;28;20048;-72
2022/12/07 05:23:05;;;;;;;16.17;4.15;;;5.10;99.90;;;;;;5093762;28;20522;-73
2022/12/07 05:25:30;;;;;;;10.93;3.88;;;5.10;99.90;;;;;;5095808;28;20031;-73
2022/12/07 05:27:56;;;;;;;8.82;3.80;;;5.10;99.90;;;;;;5095117;28;20047;-73
2022/12/07 05:30:24;;;;;;;21.27;4.50;;;5.10;99.90;;;;;;5095062;28;20115;-72
2022/12/07 05:32:50;;;;;;;9.43;3.72;;;5.00;99.90;;;;;;5094743;28;20062;-72
2022/12/07 05:35:16;;;;;;;19.73;4.43;;;5.00;99.90;;;;;;5096026;28;20032;-74
2022/12/07 05:37:41;;;;;;;12.77;4.68;;;5.10;99.90;;;;;;5095968;28;20039;-73
2022/12/07 05:40:08;;;;;;;12.95;3.40;;;5.10;99.90;;;;;;5095811;28;20036;-72
2022/12/07 05:42:34;;;;;;;9.88;4.43;;;5.20;99.90;;;;;;5095817;28;20028;-74
2022/12/07 05:45:00;;;;;;;8.63;3.92;;;5.10;99.90;;;;;;5095863;28;20070;-73
2022/12/07 05:47:26;;;;;;;15.95;4.25;;;5.10;99.90;;;;;;5096519;28;20036;-75
2022/12/07 05:49:52;;;;;;;10.93;4.03;;;5.00;99.90;;;;;;5095562;28;20042;-74
2022/12/07 05:52:17;;;;;;;9.80;3.75;;;5.10;99.90;;;;;;5095838;28;20111;-74
2022/12/07 05:54:43;;;;;;;11.00;5.15;;;5.10;99.90;;;;;;5095613;28;20383;-75
2022/12/07 05:57:09;;;;;;;13.98;4.22;;;5.00;99.90;;;;;;5095607;28;20527;-75
2022/12/07 05:59:35;;;;;;;12.57;4.70;;;5.10;99.90;;;;;;5095745;28;20431;-75
2022/12/07 06:02:04;;;;;;;18.27;5.85;;;5.10;99.90;;;;;;5095456;28;20049;-75
2022/12/07 06:04:32;;;;;;;11.88;4.97;;;5.10;99.90;;;;;;5095901;28;20123;-75
2022/12/07 06:06:58;;;;;;;20.40;6.15;;;5.00;99.90;;;;;;5095082;28;20380;-75
2022/12/07 06:09:26;;;;;;;14.88;5.93;;;5.00;99.90;;;;;;5095520;28;20032;-75
2022/12/07 06:14:36;;;;;;;13.45;6.28;;;5.10;99.90;;;;;;5086183;28;20052;-75
2022/12/07 06:17:02;;;;;;;15.38;6.93;;;5.10;99.90;;;;;;5090735;28;20070;-75
2022/12/07 06:19:28;;;;;;;16.00;6.47;;;5.10;99.90;;;;;;5095406;28;20089;-75
2022/12/07 06:21:54;;;;;;;23.65;7.30;;;5.20;99.90;;;;;;5094859;28;20062;-75
2022/12/07 06:24:20;;;;;;;13.70;5.85;;;5.40;99.90;;;;;;5093992;28;20107;-75
2022/12/07 06:26:45;;;;;;;19.33;6.13;;;5.20;99.90;;;;;;5095262;28;20103;-74
2022/12/07 06:29:12;;;;;;;17.40;5.95;;;5.10;99.90;;;;;;5095026;28;20076;-75
2022/12/07 06:31:38;;;;;;;12.77;6.88;;;5.10;99.90;;;;;;5094989;28;20376;-75
2022/12/07 06:34:08;;;;;;;18.58;7.55;;;5.10;99.90;;;;;;5094376;28;20529;-75
2022/12/07 06:36:34;;;;;;;16.38;6.00;;;5.00;99.90;;;;;;5094457;28;20039;-75
2022/12/07 06:39:00;;;;;;;14.88;6.15;;;5.20;99.90;;;;;;5094967;28;20035;-75
2022/12/07 06:41:26;;;;;;;21.10;6.53;;;5.10;99.90;;;;;;5093518;28;20047;-76
2022/12/07 06:43:52;;;;;;;16.77;7.30;;;5.00;99.90;;;;;;5094721;28;20031;-75
2022/12/07 06:46:17;;;;;;;21.17;6.45;;;4.70;99.90;;;;;;5094636;28;20476;-75
2022/12/07 06:48:43;;;;;;;21.33;8.48;;;4.70;99.90;;;;;;5093308;28;20047;-75
2022/12/07 06:51:10;;;;;;;18.42;8.25;;;4.80;99.90;;;;;;5094507;28;20379;-75
2022/12/07 06:53:36;;;;;;;27.83;7.50;;;4.60;99.90;;;;;;5067596;28;20039;-75
2022/12/07 06:56:02;;;;;;;18.17;8.88;;;4.50;99.90;;;;;;5063839;28;20025;-75
2022/12/07 06:58:28;;;;;;;18.60;8.43;;;4.60;99.90;;;;;;5077990;28;20028;-72
2022/12/07 07:00:54;;;;;;;20.65;9.60;;;4.40;99.90;;;;;;5080460;28;20377;-73
2022/12/07 07:03:20;;;;;;;23.55;8.82;;;4.50;99.90;;;;;;5073774;28;20024;-74
2022/12/07 07:05:46;;;;;;;29.40;7.75;;;4.40;99.90;;;;;;5092111;28;20024;-74
2022/12/07 07:08:12;;;;;;;22.30;8.35;;;4.60;99.90;;;;;;5080611;28;20123;-75
2022/12/07 07:10:39;;;;;;;20.38;8.40;;;4.40;99.90;;;;;;5081383;28;20039;-75
2022/12/07 07:13:04;;;;;;;18.05;7.47;;;4.50;99.90;;;;;;5081759;28;20024;-75
2022/12/07 07:15:31;;;;;;;12.63;6.97;;;4.60;99.90;;;;;;5086954;28;20051;-74
2022/12/07 07:17:57;;;;;;;17.75;7.80;;;4.40;99.90;;;;;;5087880;28;20044;-75
2022/12/07 07:20:22;;;;;;;19.10;8.60;;;4.50;99.90;;;;;;5078237;28;20017;-75
2022/12/07 07:22:49;;;;;;;16.60;7.03;;;4.60;99.90;;;;;;5074143;28;20036;-75
2022/12/07 07:25:15;;;;;;;14.52;7.03;;;4.50;99.90;;;;;;5069786;28;20427;-74
2022/12/07 07:27:41;;;;;;;20.85;7.75;;;4.60;99.90;;;;;;5067157;28;20029;-74
2022/12/07 07:30:08;;;;;;;18.23;7.85;;;4.40;99.90;;;;;;5072351;28;20032;-74
2022/12/07 07:32:34;;;;;;;23.05;7.28;;;4.60;99.90;;;;;;5071183;28;20020;-74
2022/12/07 07:34:59;;;;;;;28.42;7.60;;;4.80;99.90;;;;;;5070442;28;20499;-74
2022/12/07 07:37:26;;;;;;;26.15;8.38;;;4.70;99.90;;;;;;5072266;28;20078;-75
2022/12/07 07:39:52;;;;;;;20.02;8.70;;;4.70;99.90;;;;;;5071427;28;20123;-74
2022/12/07 07:42:17;;;;;;;25.38;8.10;;;4.50;99.90;;;;;;5087953;28;20170;-75
2022/12/07 07:44:45;;;;;;;22.23;8.25;;;4.50;99.90;;;;;;5059146;28;20024;-75
2022/12/07 07:47:11;;;;;;;19.73;8.88;;;4.40;99.90;;;;;;5071955;28;20360;-76
2022/12/07 07:49:36;;;;;;;33.53;10.90;;;4.40;99.90;;;;;;5071927;28;20041;-75
2022/12/07 07:52:03;;;;;;;24.52;9.50;;;4.50;99.90;;;;;;5064620;28;20013;-74
2022/12/07 07:54:29;;;;;;;21.45;9.93;;;4.60;99.90;;;;;;5071331;28;20393;-75
2022/12/07 07:56:54;;;;;;;22.40;9.90;;;4.60;99.90;;;;;;5071142;28;20016;-75
2022/12/07 07:59:20;;;;;;;14.55;7.93;;;4.70;99.90;;;;;;5070817;28;20040;-75
2022/12/07 08:01:46;;;;;;;27.75;8.00;;;4.80;99.90;;;;;;5065099;28;20036;-76
2022/12/07 08:04:12;;;;;;;14.68;6.82;;;4.80;99.90;;;;;;5066010;28;20091;-76
2022/12/07 08:06:37;;;;;;;19.65;7.45;;;4.90;99.90;;;;;;5070643;28;20459;-75
2022/12/07 08:09:05;;;;;;;19.90;7.15;;;4.90;99.90;;;;;;5070557;28;20064;-75
2022/12/07 08:11:31;;;;;;;24.23;8.27;;;5.00;99.90;;;;;;5071935;28;20107;-75
2022/12/07 08:13:57;;;;;;;29.63;16.25;;;5.00;99.90;;;;;;5070760;28;20096;-75
2022/12/07 08:16:22;;;;;;;25.42;9.82;;;4.90;99.90;;;;;;5069381;28;20020;-75
2022/12/07 08:18:48;;;;;;;21.17;7.95;;;4.80;99.90;;;;;;5064631;28;20032;-74
2022/12/07 08:21:15;;;;;;;21.80;10.77;;;4.90;99.90;;;;;;5071512;28;20020;-75
2022/12/07 08:23:41;;;;;;;17.30;7.45;;;5.00;99.90;;;;;;5070076;28;20062;-75
2022/12/07 08:26:10;;;;;;;16.10;6.70;;;4.80;99.90;;;;;;5071934;28;20044;-75
2022/12/07 08:28:36;;;;;;;20.05;6.15;;;4.80;99.90;;;;;;5071897;28;20385;-75
2022/12/07 08:31:05;;;;;;;15.43;7.07;;;4.80;99.90;;;;;;5070372;28;20027;-75
2022/12/07 08:33:32;;;;;;;22.25;7.35;;;4.80;99.90;;;;;;5071638;28;20028;-75
2022/12/07 08:36:06;;;;;;;23.10;7.65;;;4.80;99.90;;;;;;5071562;28;20021;-76
2022/12/07 08:38:34;;;;;;;14.70;6.65;;;5.00;99.90;;;;;;5071821;28;20377;-75
2022/12/07 08:41:00;;;;;;;19.17;8.32;;;5.00;99.90;;;;;;5070045;28;20067;-75
2022/12/07 08:43:26;;;;;;;19.15;7.93;;;5.00;99.90;;;;;;5053914;28;20444;-75
2022/12/07 08:46:02;;;;;;;18.63;6.65;;;5.10;99.90;;;;;;5071388;28;20036;-75
2022/12/07 08:48:28;;;;;;;20.15;6.10;;;4.90;99.90;;;;;;5070269;28;20070;-75
2022/12/07 08:50:53;;;;;;;16.67;7.10;;;5.20;99.90;;;;;;5070301;28;20013;-75
2022/12/07 08:53:19;;;;;;;14.82;5.22;;;5.10;99.90;;;;;;5069422;28;20071;-73
2022/12/07 08:55:46;;;;;;;20.55;5.90;;;5.10;99.90;;;;;;5083905;28;20100;-74
2022/12/07 08:58:12;;;;;;;18.55;5.78;;;5.10;99.90;;;;;;5076677;28;20498;-76
2022/12/07 09:00:38;;;;;;;17.50;4.75;;;5.40;99.90;;;;;;5087003;28;20110;-76
2022/12/07 09:03:03;;;;;;;14.88;6.07;;;5.40;99.90;;;;;;5087176;28;20099;-75
2022/12/07 09:05:29;;;;;;;13.60;4.95;;;5.30;99.90;;;;;;5092451;28;20028;-76
2022/12/07 09:07:59;;;;;;;20.70;10.32;;;5.30;99.90;;;;;;5086748;28;20075;-75
2022/12/07 09:10:25;;;;;;;17.02;5.57;;;5.70;99.90;;;;;;5081591;28;20117;-76
2022/12/07 09:12:51;;;;;;;14.88;5.30;;;5.80;99.90;;;;;;5087303;28;20024;-76
2022/12/07 09:15:17;;;;;;;12.93;4.43;;;6.10;99.90;;;;;;5087212;28;20503;-76
2022/12/07 09:17:43;;;;;;;15.15;4.78;;;6.30;99.90;;;;;;5095149;28;20036;-75
2022/12/07 09:20:09;;;;;;;11.15;4.47;;;7.00;99.90;;;;;;5085015;28;20031;-74
2022/12/07 09:22:35;;;;;;;19.75;4.93;;;7.20;99.90;;;;;;5076090;28;20029;-75
2022/12/07 09:25:01;;;;;;;12.95;4.13;;;7.30;99.90;;;;;;5074117;28;20062;-74
2022/12/07 09:27:27;;;;;;;12.02;4.30;;;7.70;99.90;;;;;;5069988;28;20112;-75
2022/12/07 09:29:53;;;;;;;15.65;4.57;;;8.10;99.90;;;;;;5065438;28;20115;-75
2022/12/07 09:32:19;;;;;;;12.82;3.65;;;8.10;99.90;;;;;;5073344;28;20038;-76
2022/12/07 09:34:45;;;;;;;12.82;4.22;;;7.30;99.90;;;;;;5075065;28;20399;-75
2022/12/07 09:37:11;;;;;;;23.63;7.32;;;6.90;99.90;;;;;;5074728;28;20063;-75
2022/12/07 09:39:40;;;;;;;52.38;19.40;;;6.50;99.90;;;;;;5074517;28;20028;-76
2022/12/07 09:42:07;;;;;;;28.13;12.32;;;6.80;99.90;;;;;;5074733;28;20055;-75
2022/12/07 09:44:35;;;;;;;25.13;9.48;;;6.90;99.90;;;;;;5073459;28;21109;-74
2022/12/07 09:47:02;;;;;;;21.92;10.88;;;7.00;99.90;;;;;;5071494;28;20029;-72
2022/12/07 09:49:32;;;;;;;22.08;8.55;;;6.70;99.90;;;;;;5074627;28;20048;-73
2022/12/07 09:52:04;;;;;;;11.32;5.20;;;6.70;99.90;;;;;;5073768;28;20545;-72
2022/12/07 09:54:30;;;;;;;;;;;6.60;99.90;;;;;;5085709;28;20032;-72
2022/12/07 09:56:56;;;;;;;20.92;8.77;;;6.50;99.90;;;;;;5079374;28;19908;-72
2022/12/07 09:59:22;;;;;;;24.45;6.85;;;6.60;99.90;;;;;;5092584;28;20307;-73
2022/12/07 10:01:49;;;;;;;14.98;6.13;;;6.50;99.90;;;;;;5094018;28;20024;-73
2022/12/07 10:04:22;;;;;;;21.73;8.82;;;6.60;99.90;;;;;;5095621;28;20388;-72
2022/12/07 10:06:48;;;;;;;20.35;5.85;;;6.80;99.90;;;;;;5093060;28;20027;-72
2022/12/07 10:09:19;;;;;;;17.45;6.13;;;6.80;99.90;;;;;;5093245;28;20031;-73
2022/12/07 10:12:08;;;;;;;12.23;4.40;;;6.70;99.90;;;;;;5095370;28;20034;-75
2022/12/07 10:14:37;;;;;;;14.88;8.32;;;6.60;99.90;;;;;;5095317;28;20016;-74
2022/12/07 10:17:23;;;;;;;20.73;7.22;;;6.70;99.90;;;;;;5093988;28;20473;-75
2022/12/07 10:19:49;;;;;;;18.50;7.22;;;6.60;99.90;;;;;;5095396;28;20532;-74
2022/12/07 10:22:16;;;;;;;20.52;7.40;;;6.60;99.90;;;;;;5093591;28;20044;-74
2022/12/07 10:24:46;;;;;;;18.55;8.35;;;6.60;99.90;;;;;;5095241;28;20063;-75
2022/12/07 10:27:29;;;;;;;18.00;6.82;;;6.80;99.90;;;;;;5095002;28;20472;-74
2022/12/07 10:29:54;;;;;;;15.18;5.53;;;6.70;99.90;;;;;;5094845;28;20047;-75
2022/12/07 10:32:32;;;;;;;19.15;5.43;;;6.60;99.90;;;;;;5094780;28;20099;-76
2022/12/07 10:35:25;;;;;;;16.83;6.05;;;6.50;99.90;;;;;;5093885;28;20031;-75
2022/12/07 10:37:52;;;;;;;45.60;8.07;;;6.70;99.90;;;;;;5094420;28;20433;-69
2022/12/07 10:40:28;;;;;;;16.50;6.25;;;6.80;99.90;;;;;;5094681;28;20032;-72
2022/12/07 10:43:12;;;;;;;16.88;6.35;;;7.00;99.90;;;;;;5093009;28;20028;-70
2022/12/07 10:46:01;;;;;;;16.52;5.05;;;6.90;99.90;;;;;;5093335;28;20063;-70
2022/12/07 10:49:03;;;;;;;16.13;5.50;;;6.60;99.90;;;;;;5072447;28;20090;-71
2022/12/07 10:51:55;;;;;;;20.33;7.00;;;6.70;99.90;;;;;;5057063;28;20033;-71
2022/12/07 10:54:39;;;;;;;12.73;5.65;;;6.60;99.90;;;;;;5078110;28;20082;-71
2022/12/07 10:57:27;;;;;;;14.73;4.93;;;6.60;99.90;;;;;;5059391;28;20059;-70
2022/12/07 11:00:21;;;;;;;16.67;4.90;;;6.60;99.90;;;;;;5072471;28;20036;-71
2022/12/07 11:03:24;;;;;;;16.25;4.93;;;6.70;99.90;;;;;;5068676;28;20238;-71
2022/12/07 11:06:04;;;;;;;18.50;4.82;;;6.70;99.90;;;;;;5073184;28;20036;-72
2022/12/07 11:08:40;;;;;;;18.83;5.43;;;6.70;99.90;;;;;;5073321;28;20489;-71
2022/12/07 11:11:15;;;;;;;14.82;4.70;;;6.70;99.90;;;;;;5072196;28;20556;-71
2022/12/07 11:13:59;;;;;;;20.02;6.18;;;6.80;99.90;;;;;;5073373;28;20040;-71
2022/12/07 11:16:51;;;;;;;14.02;4.93;;;7.00;99.90;;;;;;5073399;28;20035;-71
2022/12/07 11:19:29;;;;;;;16.20;5.78;;;7.30;99.90;;;;;;5073406;28;20040;-72
2022/12/07 11:22:06;;;;;;;11.30;4.93;;;7.30;99.90;;;;;;5073410;28;20032;-75
2022/12/07 11:24:50;;;;;;;7.30;4.10;;;7.50;99.90;;;;;;5074275;28;20032;-74
2022/12/07 11:27:46;;;;;;;13.00;3.88;;;7.70;99.90;;;;;;5073075;28;20029;-72
2022/12/07 11:30:29;;;;;;;9.35;3.88;;;7.90;99.90;;;;;;5064760;28;20040;-71
2022/12/07 11:33:21;;;;;;;8.35;2.83;;;8.40;99.90;;;;;;5072806;28;20028;-71
2022/12/07 11:36:16;;;;;;;8.80;3.08;;;8.30;99.90;;;;;;5072967;28;20677;-71
2022/12/07 11:38:57;;;;;;;6.45;2.47;;;8.20;99.90;;;;;;5061464;28;20492;-72
2022/12/07 11:41:42;;;;;;;10.20;2.85;;;8.30;99.90;;;;;;5071910;28;20025;-71
2022/12/07 11:44:27;;;;;;;6.38;2.22;;;9.20;99.90;;;;;;5067020;28;20031;-71
2022/12/07 11:47:09;;;;;;;7.65;2.70;;;10.20;99.90;;;;;;5072559;28;20028;-71
2022/12/07 11:49:56;;;;;;;8.77;2.67;;;9.90;99.90;;;;;;5070795;28;20070;-71
2022/12/07 11:52:32;;;;;;;5.57;1.80;;;9.50;99.90;;;;;;5064737;28;20029;-71
2022/12/07 11:55:00;;;;;;;8.70;2.17;;;8.70;99.90;;;;;;5077649;28;20477;-72
2022/12/07 11:57:39;;;;;;;4.80;1.88;;;8.50;99.90;;;;;;5072121;28;20020;-71
2022/12/07 12:00:12;;;;;;;6.28;2.17;;;8.50;99.90;;;;;;5085222;28;20071;-71
2022/12/07 12:03:09;;;;;;;8.55;3.03;;;8.70;99.90;;;;;;5072481;28;20060;-71
2022/12/07 12:05:35;;;;;;;8.38;2.40;;;9.30;99.90;;;;;;5071008;28;20028;-72
2022/12/07 12:08:19;;;;;;;6.72;2.70;;;10.80;99.90;;;;;;5069878;28;20037;-72
2022/12/07 12:11:03;;;;;;;3.05;1.35;;;11.50;99.90;;;;;;5066641;28;20036;-72
2022/12/07 12:13:35;;;;;;;7.78;1.30;;;11.30;99.90;;;;;;5069817;28;20036;-71
2022/12/07 12:16:43;;;;;;;3.13;1.00;;;11.80;99.90;;;;;;5067820;28;20503;-72
2022/12/07 12:19:26;;;;;;;2.63;0.90;;;11.70;99.90;;;;;;5071734;28;20384;-72
2022/12/07 12:22:13;;;;;;;8.02;1.20;;;11.20;99.90;;;;;;5086413;28;20059;-71
2022/12/07 12:24:41;;;;;;;6.82;1.35;;;10.00;99.90;;;;;;5068490;28;20107;-72
2022/12/07 12:27:16;;;;;;;10.13;1.50;;;9.80;99.90;;;;;;5069692;28;20032;-71
2022/12/07 12:29:43;;;;;;;11.07;1.45;;;10.30;99.90;;;;;;5071397;28;20060;-72
2022/12/07 12:32:15;;;;;;;4.70;1.33;;;10.40;99.90;;;;;;5066035;28;20024;-70
2022/12/07 12:34:46;;;;;;;8.02;1.83;;;10.90;99.90;;;;;;5067408;28;20534;-71
2022/12/07 12:37:34;;;;;;;4.72;1.55;;;12.70;99.90;;;;;;5070604;28;20040;-71
2022/12/07 12:40:39;;;;;;;8.73;1.23;;;12.30;99.90;;;;;;5061018;28;20116;-71
2022/12/07 12:43:49;;;;;;;6.95;1.70;;;11.60;99.90;;;;;;5040371;28;20063;-72
2022/12/07 12:46:31;;;;;;;10.63;1.92;;;10.30;99.90;;;;;;5084534;28;20465;-70
2022/12/07 12:49:17;;;;;;;7.85;1.63;;;10.10;99.90;;;;;;5070919;28;20040;-70
2022/12/07 12:51:58;;;;;;;4.35;1.65;;;9.80;99.90;;;;;;5063722;28;20128;-72
2022/12/07 12:54:36;;;;;;;8.27;1.60;;;10.00;99.90;;;;;;5075115;28;20078;-72
2022/12/07 12:57:09;;;;;;;8.82;2.35;;;9.60;99.90;;;;;;5083857;28;20082;-71
2022/12/07 12:59:39;;;;;;;7.20;1.70;;;9.90;99.90;;;;;;5086503;28;20057;-72
2022/12/07 13:02:30;;;;;;;5.45;1.67;;;9.60;99.90;;;;;;5086481;28;20490;-72
2022/12/07 13:04:58;;;;;;;6.93;1.55;;;8.90;99.90;;;;;;5088968;28;20032;-72
2022/12/07 13:07:51;;;;;;;5.63;1.38;;;8.60;99.90;;;;;;5076469;28;20043;-71
2022/12/07 13:10:32;;;;;;;8.90;1.80;;;8.20;99.90;;;;;;5069531;28;20045;-72
2022/12/07 13:13:13;;;;;;;4.75;1.33;;;7.80;99.90;;;;;;5083830;28;20480;-72